Time;durP1;ratioP1;P1;durP2;ratioP2;P2;SDS_P1;SDS_P2;PMS_P1;PMS_P2;Temp;Humidity;BMP_temperature;BMP_pressure;BME280_temperature;BME280_humidity;BME280_pressure;Samples;Min_cycle;Max_cycle;Signal;HPM_P1;HPM_P2
2022/03/12 00:00:46;;;;;;;;;;;19.60;19.30;;;;;;5122042;27;19928;-47
2022/03/12 00:03:13;;;;;;;;;;;20.30;18.90;;;;;;5127469;27;19924;-44
2022/03/12 00:05:47;;;;;;;;;;;21.10;18.10;;;;;;5123671;27;20399;-48
2022/03/12 00:08:14;;;;;;;;;;;20.30;18.60;;;;;;5122433;27;19974;-45
2022/03/12 00:10:43;;;;;;;;;;;20.10;19.00;;;;;;5127542;27;19983;-47
2022/03/12 00:13:09;;;;;;;;;;;21.00;18.20;;;;;;5123033;27;20422;-56
2022/03/12 00:15:37;;;;;;;;;;;20.70;18.40;;;;;;5124235;27;19923;-46
2022/03/12 00:18:06;;;;;;;;;;;19.60;19.60;;;;;;5121243;27;19948;-48
2022/03/12 00:20:33;;;;;;;;;;;20.80;18.60;;;;;;5122569;27;20017;-47
2022/03/12 00:22:59;;;;;;;;;;;21.00;18.40;;;;;;5128115;27;19924;-45
2022/03/12 00:25:26;;;;;;;;;;;19.20;20.20;;;;;;5121774;27;19935;-46
2022/03/12 00:27:51;;;;;;;;;;;20.50;19.00;;;;;;5121700;27;19927;-45
2022/03/12 00:30:22;;;;;;;;;;;21.20;18.40;;;;;;5127633;27;19930;-46
2022/03/12 00:32:48;;;;;;;;;;;20.30;19.10;;;;;;5119207;27;19924;-46
2022/03/12 00:35:15;;;;;;;;;;;20.00;19.60;;;;;;5119646;27;19930;-53
2022/03/12 00:37:40;;;;;;;;;;;21.00;18.70;;;;;;5127283;27;19923;-50
2022/03/12 00:40:06;;;;;;;;;;;20.60;19.00;;;;;;5122064;28;20311;-47
2022/03/12 00:42:32;;;;;;;;;;;19.60;20.10;;;;;;5127071;27;19929;-45
2022/03/12 00:44:58;;;;;;;;;;;20.80;19.00;;;;;;5120294;28;19927;-45
2022/03/12 00:47:24;;;;;;;;;;;21.30;18.50;;;;;;5122709;28;19923;-50
2022/03/12 00:49:50;;;;;;;;;;;19.30;20.20;;;;;;5126860;28;19927;-47
2022/03/12 00:52:18;;;;;;;;;;;20.20;19.50;;;;;;5117687;27;19923;-47
2022/03/12 00:54:44;;;;;;;;;;;21.00;18.80;;;;;;5121673;27;20077;-47
2022/03/12 00:57:11;;;;;;;;;;;20.80;18.90;;;;;;5127408;28;19927;-45
2022/03/12 00:59:38;;;;;;;;;;;19.80;20.00;;;;;;5121432;27;19927;-48
2022/03/12 01:02:04;;;;;;;;;;;20.80;19.00;;;;;;5125867;28;19924;-45
2022/03/12 01:04:30;;;;;;;;;;;21.30;18.60;;;;;;5122581;28;19978;-46
2022/03/12 01:06:55;;;;;;;;;;;19.30;20.30;;;;;;5122723;27;19930;-47
2022/03/12 01:09:21;;;;;;;;;;;20.20;19.70;;;;;;5129215;27;20375;-52
2022/03/12 01:11:47;;;;;;;;;;;21.00;19.00;;;;;;5122667;27;19923;-45
2022/03/12 01:14:13;;;;;;;;;;;20.80;19.10;;;;;;5124294;27;20349;-45
2022/03/12 01:16:39;;;;;;;;;;;19.70;20.20;;;;;;5130748;27;19969;-46
2022/03/12 01:19:04;;;;;;;;;;;20.80;19.20;;;;;;5125077;27;19927;-45
2022/03/12 01:21:30;;;;;;;;;;;21.20;18.70;;;;;;5131033;27;19927;-52
2022/03/12 01:23:56;;;;;;;;;;;19.30;20.50;;;;;;5125940;27;19923;-45
2022/03/12 01:26:22;;;;;;;;;;;20.30;19.70;;;;;;5124775;27;20390;-43
2022/03/12 01:28:48;;;;;;;;;;;21.10;19.00;;;;;;5127494;27;19923;-45
2022/03/12 01:31:15;;;;;;;;;;;20.30;19.50;;;;;;5124322;27;20425;-46
2022/03/12 01:33:40;;;;;;;;;;;19.80;20.30;;;;;;5124997;27;20056;-49
2022/03/12 01:36:07;;;;;;;;;;;20.80;19.20;;;;;;5130687;27;20375;-48
2022/03/12 01:38:33;;;;;;;;;;;21.10;18.80;;;;;;5125993;27;19923;-44
2022/03/12 01:41:02;;;;;;;;;;;19.30;20.50;;;;;;5127002;27;19975;-51
2022/03/12 01:43:31;;;;;;;;;;;20.40;19.40;;;;;;5129914;27;19935;-46
2022/03/12 01:46:00;;;;;;;;;;;21.20;18.70;;;;;;5124474;27;19923;-47
2022/03/12 01:48:26;;;;;;;;;;;20.20;19.40;;;;;;5126935;27;20391;-47
2022/03/12 01:50:52;;;;;;;;;;;20.00;19.70;;;;;;5124338;27;19926;-44
2022/03/12 01:53:18;;;;;;;;;;;20.90;18.70;;;;;;5124940;27;20395;-45
2022/03/12 01:55:43;;;;;;;;;;;20.90;18.60;;;;;;5130322;27;19924;-46
2022/03/12 01:58:09;;;;;;;;;;;19.80;19.80;;;;;;5124874;27;19977;-47
2022/03/12 02:00:43;;;;;;;;;;;20.80;18.80;;;;;;5124900;27;20186;-45
2022/03/12 02:03:12;;;;;;;;;;;21.00;18.50;;;;;;5128894;27;19927;-47
2022/03/12 02:05:38;;;;;;;;;;;19.30;20.10;;;;;;5120658;27;19953;-47
2022/03/12 02:08:04;;;;;;;;;;;20.50;19.00;;;;;;5125628;27;20302;-53
2022/03/12 02:10:31;;;;;;;;;;;21.20;18.40;;;;;;5127954;27;19923;-48
2022/03/12 02:12:57;;;;;;;;;;;19.70;19.50;;;;;;5124426;27;19933;-44
2022/03/12 02:15:23;;;;;;;;;;;20.20;19.30;;;;;;5129693;27;20310;-46
2022/03/12 02:17:51;;;;;;;;;;;20.90;18.60;;;;;;5123656;27;19938;-46
2022/03/12 02:20:18;;;;;;;;;;;20.80;18.40;;;;;;5123897;27;19924;-46
2022/03/12 02:22:45;;;;;;;;;;;19.60;19.50;;;;;;5128597;27;19923;-45
2022/03/12 02:25:12;;;;;;;;;;;20.70;18.50;;;;;;5120371;27;20382;-45
2022/03/12 02:27:38;;;;;;;;;;;21.20;18.00;;;;;;5123912;27;20738;-44
2022/03/12 02:30:08;;;;;;;;;;;19.40;19.40;;;;;;5128132;27;19927;-45
2022/03/12 02:32:35;;;;;;;;;;;20.20;18.80;;;;;;5122887;27;19930;-45
2022/03/12 02:35:01;;;;;;;;;;;21.00;18.00;;;;;;5129913;27;20301;-49
2022/03/12 02:37:30;;;;;;;;;;;20.60;18.20;;;;;;5124106;27;19923;-46
2022/03/12 02:40:05;;;;;;;;;;;19.80;19.10;;;;;;5123899;27;20456;-43
2022/03/12 02:42:33;;;;;;;;;;;20.90;18.10;;;;;;5124078;27;19942;-45
2022/03/12 02:44:59;;;;;;;;;;;20.80;18.10;;;;;;5122666;27;19927;-44
2022/03/12 02:47:29;;;;;;;;;;;19.60;19.30;;;;;;5123642;27;20126;-47
2022/03/12 02:49:56;;;;;;;;;;;20.80;18.30;;;;;;5129131;27;19923;-45
2022/03/12 02:52:22;;;;;;;;;;;21.10;17.80;;;;;;5123906;27;19945;-45
2022/03/12 02:54:49;;;;;;;;;;;19.00;19.60;;;;;;5123516;27;20017;-46
2022/03/12 02:57:15;;;;;;;;;;;20.30;18.60;;;;;;5128840;27;19923;-45
2022/03/12 02:59:42;;;;;;;;;;;21.10;17.90;;;;;;5121645;27;19923;-46
2022/03/12 03:02:09;;;;;;;;;;;20.70;18.20;;;;;;5125091;27;20446;-49
2022/03/12 03:04:37;;;;;;;;;;;19.80;19.00;;;;;;5123106;27;19930;-46
2022/03/12 03:07:04;;;;;;;;;;;20.80;18.10;;;;;;5123301;27;19923;-47
2022/03/12 03:09:29;;;;;;;;;;;21.20;17.80;;;;;;5128802;27;19924;-48
2022/03/12 03:11:57;;;;;;;;;;;19.40;19.30;;;;;;5123220;27;19986;-47
2022/03/12 03:14:26;;;;;;;;;;;20.40;18.50;;;;;;5123211;27;20402;-45
2022/03/12 03:16:53;;;;;;;;;;;21.20;17.90;;;;;;5128639;27;19923;-45
2022/03/12 03:19:21;;;;;;;;;;;20.00;18.70;;;;;;5119566;27;19968;-44
2022/03/12 03:21:46;;;;;;;;;;;20.00;18.80;;;;;;5121511;27;19975;-44
2022/03/12 03:24:12;;;;;;;;;;;20.90;18.00;;;;;;5128105;27;19993;-45
2022/03/12 03:26:38;;;;;;;;;;;21.10;17.90;;;;;;5122626;27;19931;-47
2022/03/12 03:29:04;;;;;;;;;;;19.10;19.90;;;;;;5128165;27;20317;-47
2022/03/12 03:31:30;;;;;;;;;;;20.30;18.80;;;;;;5122749;27;20387;-45
2022/03/12 03:33:56;;;;;;;;;;;21.10;18.10;;;;;;5123056;27;19931;-43
2022/03/12 03:36:21;;;;;;;;;;;20.30;18.70;;;;;;5127632;27;20375;-47
2022/03/12 03:38:47;;;;;;;;;;;19.90;19.30;;;;;;5118835;27;20500;-43
2022/03/12 03:41:13;;;;;;;;;;;20.80;18.40;;;;;;5121846;27;20572;-46
2022/03/12 03:43:39;;;;;;;;;;;21.20;18.10;;;;;;5128185;27;20399;-44
2022/03/12 03:46:05;;;;;;;;;;;19.60;19.60;;;;;;5121032;27;20378;-43
2022/03/12 03:48:36;;;;;;;;;;;20.60;18.70;;;;;;5127893;27;19924;-44
2022/03/12 03:51:01;;;;;;;;;;;21.20;18.20;;;;;;5122786;27;19927;-44
2022/03/12 03:53:27;;;;;;;;;;;19.40;19.50;;;;;;5122015;27;20365;-51
2022/03/12 03:56:00;;;;;;;;;;;20.20;19.00;;;;;;5123845;27;19923;-48
2022/03/12 03:58:26;;;;;;;;;;;21.00;18.30;;;;;;5120118;27;20294;-48
2022/03/12 04:00:54;;;;;;;;;;;20.60;18.50;;;;;;5122047;27;19924;-45
2022/03/12 04:03:20;;;;;;;;;;;19.60;19.50;;;;;;5127651;27;19961;-45
2022/03/12 04:05:46;;;;;;;;;;;20.80;18.50;;;;;;5122405;27;19923;-46
2022/03/12 04:08:11;;;;;;;;;;;21.00;18.20;;;;;;5122266;27;19927;-51
2022/03/12 04:10:38;;;;;;;;;;;19.10;19.90;;;;;;5126431;27;19923;-46
2022/03/12 04:13:09;;;;;;;;;;;20.30;18.80;;;;;;5122016;27;19923;-48
2022/03/12 04:15:37;;;;;;;;;;;21.10;18.20;;;;;;5122539;27;20418;-46
2022/03/12 04:18:04;;;;;;;;;;;20.80;18.30;;;;;;5121468;27;19930;-46
2022/03/12 04:20:30;;;;;;;;;;;19.80;19.20;;;;;;5121824;27;19947;-47
2022/03/12 04:22:56;;;;;;;;;;;20.80;18.40;;;;;;5127298;27;20294;-49
2022/03/12 04:25:22;;;;;;;;;;;21.10;18.00;;;;;;5121966;27;20264;-45
2022/03/12 04:27:48;;;;;;;;;;;19.20;19.80;;;;;;5121810;27;20337;-44
2022/03/12 04:30:15;;;;;;;;;;;20.40;18.90;;;;;;5126933;27;19991;-50
2022/03/12 04:32:41;;;;;;;;;;;21.10;18.20;;;;;;5119759;27;19923;-45
2022/03/12 04:35:07;;;;;;;;;;;20.80;18.50;;;;;;5123653;27;19934;-54
2022/03/12 04:37:33;;;;;;;;;;;19.70;19.60;;;;;;5122903;27;19940;-48
2022/03/12 04:39:59;;;;;;;;;;;20.80;18.60;;;;;;5121592;27;19927;-47
2022/03/12 04:42:24;;;;;;;;;;;21.10;18.30;;;;;;5126829;27;19952;-45
2022/03/12 04:44:50;;;;;;;;;;;19.60;19.60;;;;;;5121418;28;19927;-45
2022/03/12 04:47:17;;;;;;;;;;;20.60;18.70;;;;;;5121586;28;20354;-47
2022/03/12 04:49:43;;;;;;;;;;;21.10;18.20;;;;;;5127168;28;19964;-45
2022/03/12 04:52:10;;;;;;;;;;;19.30;19.80;;;;;;5117851;28;20262;-45
2022/03/12 04:54:35;;;;;;;;;;;20.40;19.00;;;;;;5121435;27;19923;-57
2022/03/12 04:57:02;;;;;;;;;;;21.10;18.30;;;;;;5126057;28;19949;-45
2022/03/12 04:59:28;;;;;;;;;;;20.30;18.90;;;;;;5121477;27;19971;-46
2022/03/12 05:01:54;;;;;;;;;;;20.10;19.30;;;;;;5126771;28;19927;-46
2022/03/12 05:04:19;;;;;;;;;;;21.00;18.50;;;;;;5121450;27;19939;-47
2022/03/12 05:06:45;;;;;;;;;;;20.90;18.50;;;;;;5121477;28;19970;-46
2022/03/12 05:09:11;;;;;;;;;;;19.70;19.60;;;;;;5125674;28;20378;-51
2022/03/12 05:11:38;;;;;;;;;;;20.80;18.70;;;;;;5117864;27;19994;-48
2022/03/12 05:14:06;;;;;;;;;;;21.10;18.30;;;;;;5121113;27;19937;-47
2022/03/12 05:16:32;;;;;;;;;;;19.30;19.90;;;;;;5126777;27;19934;-50
2022/03/12 05:18:58;;;;;;;;;;;20.40;18.90;;;;;;5121455;27;20011;-45
2022/03/12 05:21:24;;;;;;;;;;;21.20;18.20;;;;;;5126758;27;19927;-48
2022/03/12 05:23:50;;;;;;;;;;;20.60;18.60;;;;;;5121561;27;20329;-46
2022/03/12 05:26:15;;;;;;;;;;;19.70;19.50;;;;;;5121073;28;19930;-47
2022/03/12 05:28:41;;;;;;;;;;;20.80;18.40;;;;;;5123229;28;19928;-46
2022/03/12 05:31:08;;;;;;;;;;;21.10;18.10;;;;;;5119762;28;19931;-48
2022/03/12 05:33:34;;;;;;;;;;;19.30;19.70;;;;;;5121140;27;20370;-47
2022/03/12 05:36:00;;;;;;;;;;;20.50;18.70;;;;;;5126681;27;19927;-44
2022/03/12 05:38:29;;;;;;;;;;;21.20;18.10;;;;;;5120999;28;20378;-47
2022/03/12 05:40:55;;;;;;;;;;;20.60;18.40;;;;;;5125430;27;19927;-53
2022/03/12 05:43:21;;;;;;;;;;;19.80;19.10;;;;;;5122387;28;19981;-45
2022/03/12 05:45:48;;;;;;;;;;;20.90;18.10;;;;;;5120446;28;19967;-50
2022/03/12 05:48:15;;;;;;;;;;;21.10;17.80;;;;;;5122657;27;19987;-51
2022/03/12 05:50:42;;;;;;;;;;;19.50;19.20;;;;;;5120253;27;19928;-50
2022/03/12 05:53:09;;;;;;;;;;;20.50;18.30;;;;;;5121164;27;20370;-46
2022/03/12 05:55:38;;;;;;;;;;;21.20;17.70;;;;;;5130191;27;20351;-53
2022/03/12 05:58:04;;;;;;;;;;;19.90;18.70;;;;;;5124554;27;20030;-45
2022/03/12 06:00:32;;;;;;;;;;;20.30;18.50;;;;;;5124367;27;19953;-46
2022/03/12 06:02:59;;;;;;;;;;;21.00;17.80;;;;;;5129934;27;19930;-49
2022/03/12 06:05:28;;;;;;;;;;;20.60;18.10;;;;;;5121859;27;19923;-51
2022/03/12 06:07:54;;;;;;;;;;;19.80;18.90;;;;;;5127699;27;19927;-49
2022/03/12 06:10:21;;;;;;;;;;;20.80;18.10;;;;;;5124266;27;19984;-50
2022/03/12 06:12:47;;;;;;;;;;;21.10;17.70;;;;;;5120478;27;19924;-48
2022/03/12 06:15:17;;;;;;;;;;;19.30;19.30;;;;;;5129877;27;19931;-49
2022/03/12 06:17:43;;;;;;;;;;;20.30;18.50;;;;;;5124385;27;20274;-47
2022/03/12 06:20:10;;;;;;;;;;;21.10;17.80;;;;;;5124092;27;20060;-47
2022/03/12 06:22:36;;;;;;;;;;;20.70;18.00;;;;;;5129179;27;20442;-46
2022/03/12 06:25:02;;;;;;;;;;;19.80;18.90;;;;;;5120237;27;19923;-48
2022/03/12 06:27:28;;;;;;;;;;;20.80;17.90;;;;;;5125625;27;20021;-58
2022/03/12 06:29:56;;;;;;;;;;;21.00;17.70;;;;;;5127827;27;19928;-51
2022/03/12 06:32:22;;;;;;;;;;;19.60;18.90;;;;;;5124031;27;19934;-48
2022/03/12 06:34:48;;;;;;;;;;;20.60;18.10;;;;;;5129602;27;19928;-47
2022/03/12 06:37:13;;;;;;;;;;;21.20;17.60;;;;;;5123878;27;19980;-55
2022/03/12 06:39:39;;;;;;;;;;;20.60;17.90;;;;;;5122434;27;20290;-50
2022/03/12 06:42:05;;;;;;;;;;;19.70;18.90;;;;;;5126994;27;19980;-49
2022/03/12 06:44:36;;;;;;;;;;;20.70;18.00;;;;;;5121122;27;19923;-49
2022/03/12 06:47:03;;;;;;;;;;;21.20;17.60;;;;;;5123588;27;20514;-48
2022/03/12 06:49:29;;;;;;;;;;;19.40;19.00;;;;;;5129214;27;19923;-49
2022/03/12 06:51:55;;;;;;;;;;;20.20;18.50;;;;;;5123678;27;19966;-49
2022/03/12 06:54:21;;;;;;;;;;;21.00;17.70;;;;;;5129048;27;20090;-48
2022/03/12 06:56:47;;;;;;;;;;;20.80;17.90;;;;;;5123776;27;20042;-46
2022/03/12 06:59:13;;;;;;;;;;;19.80;19.00;;;;;;5123261;27;20378;-51
2022/03/12 07:01:38;;;;;;;;;;;20.80;18.10;;;;;;5124977;27;19974;-53
2022/03/12 07:04:06;;;;;;;;;;;21.30;17.60;;;;;;5121927;27;19963;-50
2022/03/12 07:06:33;;;;;;;;;;;19.70;18.70;;;;;;5123124;27;20548;-47
2022/03/12 07:08:59;;;;;;;;;;;20.30;18.40;;;;;;5128678;27;19929;-46
2022/03/12 07:11:25;;;;;;;;;;;21.10;17.70;;;;;;5123653;27;19959;-50
2022/03/12 07:13:51;;;;;;;;;;;20.80;17.90;;;;;;5127355;27;20024;-54
2022/03/12 07:16:16;;;;;;;;;;;19.80;18.90;;;;;;5124701;27;20791;-47
2022/03/12 07:18:42;;;;;;;;;;;20.80;18.00;;;;;;5121558;27;19927;-55
2022/03/12 07:21:08;;;;;;;;;;;21.10;17.70;;;;;;5124760;27;20385;-46
2022/03/12 07:23:34;;;;;;;;;;;19.50;19.10;;;;;;5122757;27;19924;-47
2022/03/12 07:26:00;;;;;;;;;;;20.60;18.20;;;;;;5122906;27;20017;-47
2022/03/12 07:28:27;;;;;;;;;;;21.30;17.60;;;;;;5128275;27;19928;-52
2022/03/12 07:30:53;;;;;;;;;;;20.20;18.40;;;;;;5121737;27;20298;-45
2022/03/12 07:33:19;;;;;;;;;;;20.10;18.50;;;;;;5124147;27;19931;-57
2022/03/12 07:35:45;;;;;;;;;;;21.00;17.70;;;;;;5126978;27;19975;-51
2022/03/12 07:38:11;;;;;;;;;;;21.00;17.70;;;;;;5119297;27;19923;-47
2022/03/12 07:40:37;;;;;;;;;;;19.80;18.90;;;;;;5126848;27;20357;-47
2022/03/12 07:43:03;;;;;;;;;;;20.80;18.00;;;;;;5122428;27;19941;-50
2022/03/12 07:45:29;;;;;;;;;;;21.20;17.60;;;;;;5122573;27;20298;-50
2022/03/12 07:47:55;;;;;;;;;;;19.50;18.90;;;;;;5126846;27;21075;-48
2022/03/12 07:50:21;;;;;;;;;;;20.30;18.40;;;;;;5122388;27;19931;-50
2022/03/12 07:52:47;;;;;;;;;;;21.10;17.70;;;;;;5122869;27;19933;-51
2022/03/12 07:55:13;;;;;;;;;;;20.90;17.80;;;;;;5127212;27;19924;-48
2022/03/12 07:57:39;;;;;;;;;;;19.80;18.80;;;;;;5117204;27;19924;-51
2022/03/12 08:00:06;;;;;;;;;;;20.80;18.10;;;;;;5126826;27;19923;-49
2022/03/12 08:02:32;;;;;;;;;;;21.10;17.70;;;;;;5121237;27;19934;-50
2022/03/12 08:04:58;;;;;;;;;;;19.60;19.00;;;;;;5122154;27;19927;-49
2022/03/12 08:07:24;;;;;;;;;;;20.40;18.20;;;;;;5127704;27;19931;-49
2022/03/12 08:09:55;;;;;;;;;;;21.10;17.70;;;;;;5122002;27;19930;-50
2022/03/12 08:12:23;;;;;;;;;;;21.00;17.70;;;;;;5122208;27;19928;-48
2022/03/12 08:14:49;;;;;;;;;;;19.60;19.00;;;;;;5123200;27;19930;-53
2022/03/12 08:17:14;;;;;;;;;;;20.70;18.00;;;;;;5119356;27;19923;-50
2022/03/12 08:19:40;;;;;;;;;;;21.30;17.50;;;;;;5126026;27;19923;-59
2022/03/12 08:22:06;;;;;;;;;;;20.20;18.30;;;;;;5124010;27;19931;-48
2022/03/12 08:24:32;;;;;;;;;;;20.00;18.50;;;;;;5121946;27;19931;-52
2022/03/12 08:26:59;;;;;;;;;;;20.90;17.80;;;;;;5127415;27;19935;-51
2022/03/12 08:29:25;;;;;;;;;;;21.00;17.60;;;;;;5122299;27;19927;-52
2022/03/12 08:31:51;;;;;;;;;;;19.80;18.70;;;;;;5121635;27;19967;-48
2022/03/12 08:34:16;;;;;;;;;;;20.80;17.90;;;;;;5123232;27;19940;-52
2022/03/12 08:36:42;;;;;;;;;;;21.10;17.50;;;;;;5121348;27;19924;-47
2022/03/12 08:39:08;;;;;;;;;;;19.70;18.90;;;;;;5123054;27;19928;-56
2022/03/12 08:41:34;;;;;;;;;;;20.50;18.20;;;;;;5126376;27;19930;-48
2022/03/12 08:44:00;;;;;;;;;;;21.30;17.60;;;;;;5122380;27;20387;-51
2022/03/12 08:46:26;;;;;;;;;;;20.00;18.70;;;;;;5127256;27;19937;-47
2022/03/12 08:48:52;;;;;;;;;;;20.30;18.60;;;;;;5121777;27;20036;-48
2022/03/12 08:51:19;;;;;;;;;;;21.00;17.90;;;;;;5120741;28;19934;-48
2022/03/12 08:53:45;;;;;;;;;;;20.80;18.00;;;;;;5124280;27;19923;-47
2022/03/12 08:56:11;;;;;;;;;;;19.60;19.20;;;;;;5121235;28;19931;-53
2022/03/12 08:58:37;;;;;;;;;;;20.70;18.30;;;;;;5121703;28;20010;-50
2022/03/12 09:01:05;;;;;;;;;;;21.30;17.70;;;;;;5126983;27;19947;-53
2022/03/12 09:03:31;;;;;;;;;;;20.00;18.70;;;;;;5121492;27;20289;-49
2022/03/12 09:05:57;;;;;;;;;;;20.50;18.60;;;;;;5126754;28;19992;-47
2022/03/12 09:08:22;;;;;;;;;;;21.10;17.90;;;;;;5121346;28;20394;-51
2022/03/12 09:10:48;;;;;;;;;;;20.50;18.40;;;;;;5117882;28;20326;-50
2022/03/12 09:13:18;;;;;;;;;;;20.00;19.10;;;;;;5125674;28;19980;-48
2022/03/12 09:15:44;;;;;;;;;;;21.00;18.10;;;;;;5120215;28;19931;-48
2022/03/12 09:18:10;;;;;;;;;;;21.10;18.00;;;;;;5121693;27;20464;-48
2022/03/12 09:20:46;;;;;;;;;;;19.80;19.40;;;;;;5126848;28;19923;-50
2022/03/12 09:23:12;;;;;;;;;;;20.80;18.40;;;;;;5121539;27;20298;-48
2022/03/12 09:25:38;;;;;;;;;;;21.20;18.00;;;;;;5121652;27;19924;-52
2022/03/12 09:28:04;;;;;;;;;;;19.70;19.40;;;;;;5126566;27;19938;-50
2022/03/12 09:30:29;;;;;;;;;;;20.60;18.70;;;;;;5121811;27;20194;-52
2022/03/12 09:32:55;;;;;;;;;;;21.30;18.10;;;;;;5130249;27;19924;-51
2022/03/12 09:35:21;;;;;;;;;;;19.90;19.30;;;;;;5125128;27;20393;-50
2022/03/12 09:37:47;;;;;;;;;;;20.30;19.10;;;;;;5125038;27;19927;-49
2022/03/12 09:40:15;;;;;;;;;;;21.20;18.30;;;;;;5130509;27;19961;-55
2022/03/12 09:42:41;;;;;;;;;;;20.30;19.00;;;;;;5123943;27;19927;-49
2022/03/12 09:45:07;;;;;;;;;;;20.00;19.50;;;;;;5124791;27;20270;-49
2022/03/12 09:47:33;;;;;;;;;;;21.00;18.60;;;;;;5126600;27;19924;-49
2022/03/12 09:49:59;;;;;;;;;;;21.20;18.40;;;;;;5123690;27;19969;-47
2022/03/12 09:52:25;;;;;;;;;;;19.80;19.80;;;;;;5130166;27;19924;-46
2022/03/12 09:54:51;;;;;;;;;;;20.80;18.90;;;;;;5124730;27;20023;-48
2022/03/12 09:57:17;;;;;;;;;;;21.30;18.40;;;;;;5125195;27;19974;-47
2022/03/12 09:59:42;;;;;;;;;;;19.90;19.60;;;;;;5129997;27;19965;-45
2022/03/12 10:02:08;;;;;;;;;;;20.40;19.20;;;;;;5124635;27;19928;-52
2022/03/12 10:04:34;;;;;;;;;;;21.30;18.50;;;;;;5124016;27;19939;-58
2022/03/12 10:07:00;;;;;;;;;;;20.70;19.00;;;;;;5126075;27;20332;-46
2022/03/12 10:09:26;;;;;;;;;;;19.90;19.90;;;;;;5123753;27;19972;-46
2022/03/12 10:11:52;;;;;;;;;;;21.00;18.90;;;;;;5128481;27;20291;-47
2022/03/12 10:14:18;;;;;;;;;;;21.00;18.80;;;;;;5124593;27;19930;-45
2022/03/12 10:16:44;;;;;;;;;;;19.70;20.20;;;;;;5124349;27;19927;-48
2022/03/12 10:19:10;;;;;;;;;;;20.90;19.10;;;;;;5128542;27;19923;-48
2022/03/12 10:21:42;;;;;;;;;;;21.30;18.80;;;;;;5123821;27;19923;-46
2022/03/12 10:24:13;;;;;;;;;;;19.80;20.30;;;;;;5121498;27;19923;-49
2022/03/12 10:26:40;;;;;;;;;;;20.50;19.90;;;;;;5127431;27;19923;-52
2022/03/12 10:29:06;;;;;;;;;;;21.30;19.10;;;;;;5123985;27;19931;-46
2022/03/12 10:31:32;;;;;;;;;;;19.90;20.50;;;;;;5123960;27;20082;-46
2022/03/12 10:34:13;;;;;;;;;;;20.40;20.20;;;;;;5129470;27;19998;-46
2022/03/12 10:36:39;;;;;;;;;;;21.30;19.40;;;;;;5122492;27;19923;-47
2022/03/12 10:39:05;;;;;;;;;;;19.80;21.10;;;;;;5126070;27;19923;-53
2022/03/12 10:41:31;;;;;;;;;;;20.60;20.30;;;;;;5124830;27;19923;-45
2022/03/12 10:43:58;;;;;;;;;;;21.20;19.70;;;;;;5120114;27;19923;-45
2022/03/12 10:46:27;;;;;;;;;;;19.90;21.10;;;;;;5128365;27;20390;-46
2022/03/12 10:48:56;;;;;;;;;;;20.30;20.80;;;;;;5123607;27;19933;-46
2022/03/12 10:51:26;;;;;;;;;;;21.20;19.80;;;;;;5123692;27;19938;-48
2022/03/12 10:54:01;;;;;;;;;;;20.30;20.70;;;;;;5129052;27;19923;-47
2022/03/12 10:56:37;;;;;;;;;;;19.90;21.30;;;;;;5123551;27;20349;-50
2022/03/12 10:59:03;;;;;;;;;;;21.00;20.10;;;;;;5123459;27;19923;-48
2022/03/12 11:01:28;;;;;;;;;;;20.30;20.90;;;;;;5124176;27;19931;-49
2022/03/12 11:03:56;;;;;;;;;;;20.10;21.30;;;;;;5121779;27;19923;-46
2022/03/12 11:06:23;;;;;;;;;;;21.10;20.20;;;;;;5123358;27;19928;-49
2022/03/12 11:08:51;;;;;;;;;;;20.80;20.50;;;;;;5127708;27;19923;-47
2022/03/12 11:11:17;;;;;;;;;;;19.80;21.80;;;;;;5123326;27;19924;-51
2022/03/12 11:13:44;;;;;;;;;;;21.00;20.60;;;;;;5128793;27;20032;-47
2022/03/12 11:16:14;;;;;;;;;;;20.90;20.70;;;;;;5123282;27;19931;-48
2022/03/12 11:18:52;;;;;;;;;;;19.70;22.10;;;;;;5122396;27;19931;-47
2022/03/12 11:21:37;;;;;;;;;;;20.80;20.90;;;;;;5124491;27;20334;-49
2022/03/12 11:24:06;;;;;;;;;;;21.30;20.60;;;;;;5124015;27;19991;-47
2022/03/12 11:26:43;;;;;;;;;;;19.60;22.70;;;;;;5122853;27;20393;-51
2022/03/12 11:29:09;;;;;;;;;;;20.80;21.30;;;;;;5128281;27;20438;-49
2022/03/12 11:31:38;;;;;;;;;;;21.20;21.20;;;;;;5121330;27;19927;-48
2022/03/12 11:34:14;;;;;;;;;;;19.80;23.00;;;;;;5122816;27;20430;-48
2022/03/12 11:36:42;;;;;;;;;;;20.80;22.20;;;;;;5127863;27;19923;-48
2022/03/12 11:39:08;;;;;;;;;;;21.30;21.60;;;;;;5118931;27;19944;-50
2022/03/12 11:41:36;;;;;;;;;;;19.80;23.40;;;;;;5121655;27;19947;-48
2022/03/12 11:44:02;;;;;;;;;;;20.50;22.70;;;;;;5126554;27;20363;-53
2022/03/12 11:46:27;;;;;;;;;;;21.30;21.90;;;;;;5121172;27;19955;-52
2022/03/12 11:48:53;;;;;;;;;;;20.00;23.30;;;;;;5122690;27;19998;-53
2022/03/12 11:51:22;;;;;;;;;;;20.20;23.30;;;;;;5126497;27;19923;-47
2022/03/12 11:53:48;;;;;;;;;;;21.20;22.20;;;;;;5122245;27;19927;-49
2022/03/12 11:56:14;;;;;;;;;;;20.70;22.70;;;;;;5126642;27;19938;-48
2022/03/12 11:58:40;;;;;;;;;;;19.50;24.20;;;;;;5118884;27;19928;-48
2022/03/12 12:01:06;;;;;;;;;;;20.80;22.80;;;;;;5122345;27;19981;-47
2022/03/12 12:03:32;;;;;;;;;;;21.30;22.20;;;;;;5127760;27;20401;-49
2022/03/12 12:05:58;;;;;;;;;;;19.80;24.00;;;;;;5122242;27;19931;-49
2022/03/12 12:08:25;;;;;;;;;;;20.60;23.20;;;;;;5122303;27;19923;-50
2022/03/12 12:10:54;;;;;;;;;;;21.30;22.40;;;;;;5127629;27;19930;-49
2022/03/12 12:13:20;;;;;;;;;;;20.20;23.80;;;;;;5122042;27;20088;-44
2022/03/12 12:15:46;;;;;;;;;;;21.20;22.60;;;;;;5124108;27;19984;-59
2022/03/12 12:18:13;;;;;;;;;;;21.30;22.70;;;;;;5121434;27;19923;-59
2022/03/12 12:20:40;;;;;;;;;;;21.30;22.80;;;;;;5122529;27;19923;-52
2022/03/12 12:23:06;;;;;;;;;;;21.20;23.10;;;;;;5127504;27;20010;-58
2022/03/12 12:25:32;;;;;;;;;;;21.30;23.10;;;;;;5122448;27;19931;-59
2022/03/12 12:27:58;;;;;;;;;;;21.20;23.50;;;;;;5122182;27;19923;-59
2022/03/12 12:30:40;;;;;;;;;;;21.30;23.40;;;;;;5127352;27;19924;-58
2022/03/12 12:33:15;;;;;;;;;;;21.10;23.70;;;;;;5121261;27;20079;-57
2022/03/12 12:35:41;;;;;;;;;;;21.30;23.50;;;;;;5118804;27;20236;-56
2022/03/12 12:38:08;;;;;;;;;;;21.20;23.60;;;;;;5126999;27;20047;-63
2022/03/12 12:40:35;;;;;;;;;;;21.30;23.30;;;;;;5120831;27;19931;-58
2022/03/12 12:43:03;;;;;;;;;;;21.20;23.50;;;;;;5124148;28;19933;-58
2022/03/12 12:45:29;;;;;;;;;;;21.30;23.30;;;;;;5126367;27;19923;-59
2022/03/12 12:48:08;;;;;;;;;;;21.20;23.50;;;;;;5120455;28;19924;-61
2022/03/12 12:50:34;;;;;;;;;;;21.30;23.60;;;;;;5127261;27;20046;-54
2022/03/12 12:53:16;;;;;;;;;;;21.20;24.00;;;;;;5118480;27;19940;-50
2022/03/12 12:55:42;;;;;;;;;;;21.10;24.40;;;;;;5120884;27;20282;-62
2022/03/12 12:58:08;;;;;;;;;;;21.30;24.30;;;;;;5127072;27;20363;-58
2022/03/12 13:00:35;;;;;;;;;;;21.10;24.80;;;;;;5121587;27;20014;-61
2022/03/12 13:03:01;;;;;;;;;;;21.30;24.50;;;;;;5121925;27;20283;-59
2022/03/12 13:05:46;;;;;;;;;;;21.10;24.70;;;;;;5131129;27;19924;-56
2022/03/12 13:08:12;;;;;;;;;;;21.10;24.70;;;;;;5125907;27;19923;-59
2022/03/12 13:10:38;;;;;;;;;;;21.30;24.70;;;;;;5124359;27;19928;-54
2022/03/12 13:13:17;;;;;;;;;;;21.10;25.00;;;;;;5127989;27;19927;-59
2022/03/12 13:15:44;;;;;;;;;;;21.30;24.90;;;;;;5125926;27;19927;-52
2022/03/12 13:18:19;;;;;;;;;;;21.10;25.20;;;;;;5125591;27;20396;-60
2022/03/12 13:20:45;;;;;;;;;;;21.30;25.20;;;;;;5131030;27;19924;-59
2022/03/12 13:23:11;;;;;;;;;;;21.20;25.50;;;;;;5125187;27;19924;-58
2022/03/12 13:25:45;;;;;;;;;;;21.30;25.60;;;;;;5127387;27;19932;-50
2022/03/12 13:28:12;;;;;;;;;;;21.20;25.80;;;;;;5130321;27;20586;-61
2022/03/12 13:30:38;;;;;;;;;;;21.30;25.70;;;;;;5121877;27;19935;-54
2022/03/12 13:33:06;;;;;;;;;;;21.10;26.10;;;;;;5129922;27;19930;-61
2022/03/12 13:35:32;;;;;;;;;;;21.30;25.90;;;;;;5125406;27;19923;-53
2022/03/12 13:37:57;;;;;;;;;;;21.10;26.10;;;;;;5124970;27;19923;-60
2022/03/12 13:40:24;;;;;;;;;;;21.30;25.90;;;;;;5130339;27;19931;-49
2022/03/12 13:42:49;;;;;;;;;;;21.10;26.20;;;;;;5125169;27;19972;-57
2022/03/12 13:45:16;;;;;;;;;;;21.30;26.00;;;;;;5125421;27;19927;-56
2022/03/12 13:47:42;;;;;;;;;;;21.00;26.40;;;;;;5128821;27;19923;-61
2022/03/12 13:50:08;;;;;;;;;;;21.30;26.10;;;;;;5122190;27;19945;-59
2022/03/12 13:52:34;;;;;;;;;;;21.10;26.30;;;;;;5128571;27;19924;-58
2022/03/12 13:55:04;;;;;;;;;;;21.30;25.90;;;;;;5125317;27;20272;-52
2022/03/12 13:57:32;;;;;;;;;;;21.10;26.30;;;;;;5124867;27;19928;-58
2022/03/12 14:00:04;;;;;;;;;;;21.30;26.00;;;;;;5130024;27;19925;-49
2022/03/12 14:02:31;;;;;;;;;;;21.20;26.10;;;;;;5124716;27;19929;-59
2022/03/12 14:04:58;;;;;;;;;;;21.30;25.90;;;;;;5124655;27;19975;-50
2022/03/12 14:07:25;;;;;;;;;;;21.10;26.30;;;;;;5125919;27;20390;-60
2022/03/12 14:09:52;;;;;;;;;;;21.30;26.00;;;;;;5123645;27;19931;-57
2022/03/12 14:12:18;;;;;;;;;;;21.00;26.30;;;;;;5124846;27;19923;-60
2022/03/12 14:14:48;;;;;;;;;;;21.30;26.00;;;;;;5127340;27;20013;-56